createdAt,value
2023-04-02T00:00:12.662Z,93719.00
2023-04-02T00:01:12.645Z,93721.00
2023-04-02T00:02:12.735Z,93721.00
2023-04-02T00:03:12.778Z,93715.00
2023-04-02T00:04:12.927Z,93723.00
2023-04-02T00:05:12.836Z,93721.00
2023-04-02T00:06:12.867Z,93721.00
2023-04-02T00:07:12.935Z,93721.00
2023-04-02T00:08:12.972Z,93717.00
2023-04-02T00:09:13.032Z,93717.00
2023-04-02T00:10:13.067Z,93723.00
2023-04-02T00:11:13.116Z,93719.00
2023-04-02T00:12:13.158Z,93723.00
2023-04-02T00:13:13.165Z,93725.00
2023-04-02T00:14:13.157Z,93723.00
2023-04-02T00:15:13.186Z,93715.00
2023-04-02T00:16:13.261Z,93715.00
2023-04-02T00:17:13.285Z,93717.00
2023-04-02T00:18:13.355Z,93717.00
2023-04-02T00:19:13.383Z,93711.00
2023-04-02T00:20:13.449Z,93711.00
2023-04-02T00:21:13.479Z,93709.00
2023-04-02T00:22:13.466Z,93715.00
2023-04-02T00:23:13.466Z,93711.00
2023-04-02T00:24:13.530Z,93713.00
2023-04-02T00:25:13.551Z,93711.00
2023-04-02T00:26:13.594Z,93711.00
2023-04-02T00:27:13.659Z,93711.00
2023-04-02T00:28:13.706Z,93709.00
2023-04-02T00:29:13.752Z,93711.00
2023-04-02T00:30:13.796Z,93711.00
2023-04-02T00:31:13.864Z,93715.00
2023-04-02T00:32:13.976Z,93713.00
2023-04-02T00:33:13.962Z,93715.00
2023-04-02T00:34:14.005Z,93717.00
2023-04-02T00:35:14.040Z,93717.00
2023-04-02T00:36:14.125Z,93717.00
2023-04-02T00:37:14.171Z,93719.00
2023-04-02T00:38:14.194Z,93717.00
2023-04-02T00:39:14.245Z,93719.00
2023-04-02T00:40:14.278Z,93717.00
2023-04-02T00:41:14.352Z,93717.00
2023-04-02T00:42:14.365Z,93719.00
2023-04-02T00:43:14.370Z,93717.00
2023-04-02T00:44:14.397Z,93719.00
2023-04-02T00:45:14.374Z,93719.00
2023-04-02T00:46:14.426Z,93719.00
2023-04-02T00:47:14.391Z,93721.00
2023-04-02T00:48:14.403Z,93721.00
2023-04-02T00:49:14.427Z,93721.00
2023-04-02T00:50:14.419Z,93723.00
2023-04-02T00:51:14.423Z,93723.00
2023-04-02T00:52:14.447Z,93727.00
2023-04-02T00:53:14.427Z,93725.00
2023-04-02T00:54:14.427Z,93725.00
2023-04-02T00:55:14.458Z,93727.00
2023-04-02T00:56:14.454Z,93727.00
2023-04-02T00:57:14.447Z,93725.00
2023-04-02T00:58:14.465Z,93727.00
2023-04-02T00:59:14.486Z,93729.00
2023-04-02T01:00:14.476Z,93727.00
2023-04-02T01:01:14.537Z,93725.00
2023-04-02T01:02:14.629Z,93727.00
2023-04-02T01:03:14.748Z,93725.00
2023-04-02T01:04:14.698Z,93725.00
2023-04-02T01:05:14.746Z,93723.00
2023-04-02T01:06:14.798Z,93725.00
2023-04-02T01:07:14.845Z,93723.00
2023-04-02T01:08:14.916Z,93723.00
2023-04-02T01:09:14.910Z,93723.00
2023-04-02T01:10:14.955Z,93723.00
2023-04-02T01:11:14.956Z,93725.00
2023-04-02T01:12:14.977Z,93725.00
2023-04-02T01:13:15.003Z,93727.00
2023-04-02T01:14:15.010Z,93729.00
2023-04-02T01:15:15.056Z,93729.00
2023-04-02T01:16:15.147Z,93731.00
2023-04-02T01:17:15.150Z,93731.00
2023-04-02T01:18:15.222Z,93729.00
2023-04-02T01:19:15.264Z,93733.00
2023-04-02T01:20:15.333Z,93731.00
2023-04-02T01:21:15.356Z,93729.00
2023-04-02T01:22:15.406Z,93731.00
2023-04-02T01:23:15.464Z,93731.00
2023-04-02T01:24:15.508Z,93729.00
2023-04-02T01:25:15.534Z,93729.00
2023-04-02T01:26:15.583Z,93727.00
2023-04-02T01:27:15.633Z,93727.00
2023-04-02T01:28:15.654Z,93727.00
2023-04-02T01:29:15.638Z,93727.00
2023-04-02T01:30:15.683Z,93729.00
2023-04-02T01:31:15.763Z,93729.00
2023-04-02T01:32:15.780Z,93731.00
2023-04-02T01:33:15.861Z,93727.00
2023-04-02T01:34:15.895Z,93727.00
2023-04-02T01:35:15.956Z,93729.00
2023-04-02T01:36:16.051Z,93729.00
2023-04-02T01:37:16.091Z,93733.00
2023-04-02T01:38:16.114Z,93735.00
2023-04-02T01:39:16.149Z,93735.00
2023-04-02T01:40:16.136Z,93736.00
2023-04-02T01:41:16.160Z,93742.00
2023-04-02T01:42:16.222Z,93746.00
2023-04-02T01:43:16.224Z,93748.00
2023-04-02T01:44:16.252Z,93750.00
2023-04-02T01:45:16.334Z,93748.00
2023-04-02T01:46:16.341Z,93748.00
2023-04-02T01:47:16.374Z,93750.00
2023-04-02T01:48:16.414Z,93748.00
2023-04-02T01:49:16.410Z,93748.00
2023-04-02T01:50:16.436Z,93752.00
2023-04-02T01:51:16.434Z,93754.00
2023-04-02T01:52:16.453Z,93754.00
2023-04-02T01:53:16.450Z,93756.00
2023-04-02T01:54:16.471Z,93756.00
2023-04-02T01:55:16.520Z,93754.00
2023-04-02T01:56:16.553Z,93756.00
2023-04-02T01:57:16.681Z,93758.00
2023-04-02T01:58:16.656Z,93758.00
2023-04-02T01:59:16.699Z,93758.00
2023-04-02T02:00:16.822Z,93764.00
2023-04-02T02:01:16.880Z,93764.00
2023-04-02T02:02:16.845Z,93764.00
2023-04-02T02:03:16.939Z,93764.00
2023-04-02T02:04:16.867Z,93768.00
2023-04-02T02:05:16.909Z,93768.00
2023-04-02T02:06:16.898Z,93770.00
2023-04-02T02:07:16.912Z,93770.00
2023-04-02T02:08:16.934Z,93770.00
2023-04-02T02:09:16.969Z,93772.00
2023-04-02T02:10:17.022Z,93774.00
2023-04-02T02:11:17.054Z,93774.00
2023-04-02T02:12:17.088Z,93774.00
2023-04-02T02:13:17.079Z,93776.00
2023-04-02T02:14:17.103Z,93774.00
2023-04-02T02:15:17.147Z,93776.00
2023-04-02T02:16:17.187Z,93774.00
2023-04-02T02:17:17.194Z,93776.00
2023-04-02T02:18:17.262Z,93778.00
2023-04-02T02:19:17.285Z,93778.00
2023-04-02T02:20:17.315Z,93778.00
2023-04-02T02:21:17.332Z,93778.00
2023-04-02T02:22:17.355Z,93776.00
2023-04-02T02:23:17.371Z,93774.00
2023-04-02T02:24:17.387Z,93774.00
2023-04-02T02:25:17.393Z,93774.00
2023-04-02T02:26:17.405Z,93778.00
2023-04-02T02:27:17.431Z,93778.00
2023-04-02T02:28:17.462Z,93780.00
2023-04-02T02:29:17.470Z,93780.00
2023-04-02T02:30:17.507Z,93780.00
2023-04-02T02:31:17.484Z,93780.00
2023-04-02T02:32:17.495Z,93782.00
2023-04-02T02:33:17.578Z,93782.00
2023-04-02T02:34:17.604Z,93782.00
2023-04-02T02:35:17.651Z,93783.00
2023-04-02T02:36:17.739Z,93787.00
2023-04-02T02:37:17.768Z,93789.00
2023-04-02T02:38:17.785Z,93785.00
2023-04-02T02:39:17.827Z,93785.00
2023-04-02T02:40:17.841Z,93787.00
2023-04-02T02:41:17.862Z,93787.00
2023-04-02T02:42:17.899Z,93785.00
2023-04-02T02:43:17.966Z,93789.00
2023-04-02T02:44:18.017Z,93789.00
2023-04-02T02:45:18.062Z,93789.00
2023-04-02T02:46:18.175Z,93789.00
2023-04-02T02:47:18.129Z,93787.00
2023-04-02T02:48:18.174Z,93791.00
2023-04-02T02:49:18.179Z,93787.00
2023-04-02T02:50:18.179Z,93787.00
2023-04-02T02:51:18.225Z,93791.00
2023-04-02T02:52:18.297Z,93789.00
2023-04-02T02:53:18.351Z,93789.00
2023-04-02T02:54:18.363Z,93787.00
2023-04-02T02:55:18.418Z,93785.00
2023-04-02T02:56:18.439Z,93785.00
2023-04-02T02:57:18.572Z,93785.00
2023-04-02T02:58:18.528Z,93785.00
2023-04-02T02:59:18.590Z,93785.00
2023-04-02T03:00:18.568Z,93785.00
2023-04-02T03:01:18.799Z,93785.00
2023-04-02T03:02:18.666Z,93787.00
2023-04-02T03:03:18.849Z,93785.00
2023-04-02T03:04:18.874Z,93787.00
2023-04-02T03:05:18.819Z,93787.00
2023-04-02T03:06:18.872Z,93793.00
2023-04-02T03:07:18.919Z,93797.00
2023-04-02T03:08:18.980Z,93803.00
2023-04-02T03:09:19.018Z,93809.00
2023-04-02T03:10:19.090Z,93807.00
2023-04-02T03:11:19.092Z,93811.00
2023-04-02T03:12:19.134Z,93813.00
2023-04-02T03:13:19.136Z,93815.00
2023-04-02T03:14:19.161Z,93815.00
2023-04-02T03:15:19.188Z,93819.00
2023-04-02T03:16:19.272Z,93819.00
2023-04-02T03:17:19.233Z,93823.00
2023-04-02T03:18:19.226Z,93821.00
2023-04-02T03:19:19.269Z,93823.00
2023-04-02T03:20:19.313Z,93827.00
2023-04-02T03:21:19.381Z,93827.00
2023-04-02T03:22:19.428Z,93827.00
2023-04-02T03:23:20.481Z,93829.00
2023-04-02T03:24:19.540Z,93830.00
2023-04-02T03:25:19.584Z,93829.00
2023-04-02T03:26:19.646Z,93830.00
2023-04-02T03:27:19.685Z,93827.00
2023-04-02T03:28:19.750Z,93827.00
2023-04-02T03:29:19.817Z,93827.00
2023-04-02T03:30:19.858Z,93829.00
2023-04-02T03:31:19.932Z,93827.00
2023-04-02T03:32:19.940Z,93827.00
2023-04-02T03:33:19.977Z,93829.00
2023-04-02T03:34:20.039Z,93829.00
2023-04-02T03:35:20.076Z,93830.00
2023-04-02T03:36:20.184Z,93830.00
2023-04-02T03:37:20.190Z,93836.00
2023-04-02T03:38:20.225Z,93834.00
2023-04-02T03:39:20.269Z,93836.00
2023-04-02T03:40:20.328Z,93836.00
2023-04-02T03:41:20.339Z,93836.00
2023-04-02T03:42:20.353Z,93840.00
2023-04-02T03:43:20.381Z,93840.00
2023-04-02T03:44:20.388Z,93840.00
2023-04-02T03:45:20.399Z,93840.00
2023-04-02T03:46:20.477Z,93844.00
2023-04-02T03:47:20.427Z,93844.00
2023-04-02T03:48:20.470Z,93844.00
2023-04-02T03:49:20.514Z,93848.00
2023-04-02T03:50:20.507Z,93848.00
2023-04-02T03:51:20.529Z,93848.00
2023-04-02T03:52:20.543Z,93850.00
2023-04-02T03:53:20.570Z,93854.00
2023-04-02T03:54:20.634Z,93858.00
2023-04-02T03:55:20.678Z,93860.00
2023-04-02T03:56:21.211Z,93862.00
2023-04-02T03:57:20.808Z,93862.00
2023-04-02T03:58:20.807Z,93864.00
2023-04-02T03:59:20.847Z,93866.00
2023-04-02T04:00:20.860Z,93866.00
2023-04-02T04:01:20.868Z,93866.00
2023-04-02T04:02:20.951Z,93868.00
2023-04-02T04:03:20.916Z,93875.00
2023-04-02T04:04:20.986Z,93875.00
2023-04-02T04:05:20.971Z,93875.00
2023-04-02T04:06:21.361Z,93877.00
2023-04-02T04:07:21.069Z,93875.00
2023-04-02T04:08:21.097Z,93868.00
2023-04-02T04:09:21.133Z,93868.00
2023-04-02T04:10:21.198Z,93866.00
2023-04-02T04:11:21.271Z,93866.00
2023-04-02T04:12:21.299Z,93864.00
2023-04-02T04:13:21.357Z,93864.00
2023-04-02T04:14:21.407Z,93866.00
2023-04-02T04:15:21.440Z,93868.00
2023-04-02T04:16:21.518Z,93868.00
2023-04-02T04:17:21.474Z,93875.00
2023-04-02T04:18:21.525Z,93877.00
2023-04-02T04:19:21.523Z,93875.00
2023-04-02T04:20:21.562Z,93879.00
2023-04-02T04:21:21.599Z,93877.00
2023-04-02T04:22:21.661Z,93877.00
2023-04-02T04:23:21.684Z,93879.00
2023-04-02T04:24:21.786Z,93881.00
2023-04-02T04:25:21.785Z,93879.00
2023-04-02T04:26:21.830Z,93881.00
2023-04-02T04:27:21.873Z,93883.00
2023-04-02T04:28:21.916Z,93881.00
2023-04-02T04:29:21.952Z,93881.00
2023-04-02T04:30:22.008Z,93885.00
2023-04-02T04:31:23.925Z,93887.00
2023-04-02T04:32:22.012Z,93889.00
2023-04-02T04:33:22.007Z,93895.00
2023-04-02T04:34:21.997Z,93895.00
2023-04-02T04:35:21.992Z,93897.00
2023-04-02T04:36:21.997Z,93899.00
2023-04-02T04:37:21.986Z,93901.00
2023-04-02T04:38:22.000Z,93901.00
2023-04-02T04:39:21.974Z,93903.00
2023-04-02T04:40:21.987Z,93905.00
2023-04-02T04:41:21.985Z,93907.00
2023-04-02T04:42:21.957Z,93909.00
2023-04-02T04:43:21.950Z,93913.00
2023-04-02T04:44:21.956Z,93913.00
2023-04-02T04:45:21.957Z,93915.00
2023-04-02T04:46:22.018Z,93917.00
2023-04-02T04:47:21.984Z,93917.00
2023-04-02T04:48:21.923Z,93919.00
2023-04-02T04:49:21.905Z,93919.00
2023-04-02T04:50:21.909Z,93919.00
2023-04-02T04:51:21.909Z,93919.00
2023-04-02T04:52:21.884Z,93921.00
2023-04-02T04:53:21.881Z,93921.00
2023-04-02T04:54:21.874Z,93921.00
2023-04-02T04:55:21.881Z,93922.00
2023-04-02T04:56:21.878Z,93922.00
2023-04-02T04:57:21.914Z,93926.00
2023-04-02T04:58:21.845Z,93928.00
2023-04-02T04:59:21.839Z,93928.00
2023-04-02T05:00:21.837Z,93934.00
2023-04-02T05:01:21.857Z,93932.00
2023-04-02T05:02:21.813Z,93938.00
2023-04-02T05:03:21.849Z,93938.00
2023-04-02T05:04:21.840Z,93938.00
2023-04-02T05:05:21.809Z,93940.00
2023-04-02T05:06:21.799Z,93942.00
2023-04-02T05:07:21.798Z,93942.00
2023-04-02T05:08:21.771Z,93942.00
2023-04-02T05:09:21.784Z,93942.00
2023-04-02T05:10:21.793Z,93942.00
2023-04-02T05:11:21.748Z,93940.00
2023-04-02T05:12:21.747Z,93944.00
2023-04-02T05:13:21.738Z,93942.00
2023-04-02T05:14:21.720Z,93944.00
2023-04-02T05:15:21.720Z,93946.00
2023-04-02T05:16:21.756Z,93948.00
2023-04-02T05:17:21.724Z,93948.00
2023-04-02T05:18:21.716Z,93948.00
2023-04-02T05:19:21.692Z,93946.00
2023-04-02T05:20:21.695Z,93946.00
2023-04-02T05:21:21.708Z,93946.00
2023-04-02T05:22:21.741Z,93946.00
2023-04-02T05:23:21.764Z,93948.00
2023-04-02T05:24:21.800Z,93948.00
2023-04-02T05:25:21.840Z,93948.00
2023-04-02T05:26:21.869Z,93950.00
2023-04-02T05:27:21.927Z,93954.00
2023-04-02T05:28:21.961Z,93950.00
2023-04-02T05:29:21.994Z,93952.00
2023-04-02T05:30:22.037Z,93952.00
2023-04-02T05:31:22.140Z,93956.00
2023-04-02T05:32:22.111Z,93956.00
2023-04-02T05:33:22.181Z,93958.00
2023-04-02T05:34:22.205Z,93960.00
2023-04-02T05:35:22.234Z,93960.00
2023-04-02T05:36:22.321Z,93958.00
2023-04-02T05:37:22.318Z,93960.00
2023-04-02T05:38:22.354Z,93960.00
2023-04-02T05:39:22.399Z,93960.00
2023-04-02T05:40:22.430Z,93958.00
2023-04-02T05:41:22.504Z,93958.00
2023-04-02T05:42:22.529Z,93960.00
2023-04-02T05:43:22.554Z,93960.00
2023-04-02T05:44:22.565Z,93962.00
2023-04-02T05:45:22.584Z,93962.00
2023-04-02T05:46:22.658Z,93962.00
2023-04-02T05:47:22.766Z,93964.00
2023-04-02T05:48:22.710Z,93964.00
2023-04-02T05:49:22.738Z,93966.00
2023-04-02T05:50:22.735Z,93962.00
2023-04-02T05:51:22.807Z,93966.00
2023-04-02T05:52:22.773Z,93964.00
2023-04-02T05:53:22.790Z,93964.00
2023-04-02T05:54:22.827Z,93966.00
2023-04-02T05:55:22.851Z,93966.00
2023-04-02T05:56:22.873Z,93966.00
2023-04-02T05:57:29.608Z,93968.00
2023-04-02T05:59:23.897Z,93969.00
2023-04-02T06:00:22.867Z,93971.00
2023-04-02T06:01:22.876Z,93971.00
2023-04-02T06:02:22.905Z,93969.00
2023-04-02T06:03:22.923Z,93973.00
2023-04-02T06:04:22.851Z,93973.00
2023-04-02T06:05:22.838Z,93975.00
2023-04-02T06:06:22.842Z,93977.00
2023-04-02T06:07:22.841Z,93983.00
2023-04-02T06:08:22.823Z,93985.00
2023-04-02T06:09:22.819Z,93987.00
2023-04-02T06:10:24.632Z,93985.00
2023-04-02T06:11:22.869Z,93987.00
2023-04-02T06:12:22.798Z,93989.00
2023-04-02T06:13:22.794Z,93991.00
2023-04-02T06:14:22.758Z,93989.00
2023-04-02T06:15:22.769Z,93991.00
2023-04-02T06:16:22.816Z,93993.00
2023-04-02T06:17:22.760Z,93995.00
2023-04-02T06:18:22.745Z,93995.00
2023-04-02T06:19:22.726Z,93993.00
2023-04-02T06:20:22.731Z,93995.00
2023-04-02T06:21:22.773Z,93995.00
2023-04-02T06:22:22.811Z,93995.00
2023-04-02T06:23:22.811Z,93997.00
2023-04-02T06:24:22.855Z,93997.00
2023-04-02T06:25:22.898Z,93999.00
2023-04-02T06:26:22.919Z,93997.00
2023-04-02T06:27:22.967Z,93995.00
2023-04-02T06:28:22.988Z,93995.00
2023-04-02T06:29:23.049Z,93999.00
2023-04-02T06:30:23.072Z,93995.00
2023-04-02T06:31:23.264Z,93999.00
2023-04-02T06:32:23.172Z,93997.00
2023-04-02T06:33:23.167Z,94001.00
2023-04-02T06:34:23.188Z,94001.00
2023-04-02T06:35:23.228Z,94007.00
2023-04-02T06:36:23.317Z,94007.00
2023-04-02T06:37:23.302Z,94007.00
2023-04-02T06:38:23.324Z,94007.00
2023-04-02T06:39:23.326Z,94007.00
2023-04-02T06:40:23.338Z,94009.00
2023-04-02T06:41:23.355Z,94005.00
2023-04-02T06:42:23.350Z,94009.00
2023-04-02T06:43:23.367Z,94009.00
2023-04-02T06:44:23.385Z,94013.00
2023-04-02T06:45:23.440Z,94007.00
2023-04-02T06:46:23.512Z,94015.00
2023-04-02T06:47:23.513Z,94015.00
2023-04-02T06:48:23.534Z,94015.00
2023-04-02T06:49:23.543Z,94015.00
2023-04-02T06:50:23.619Z,94018.00
2023-04-02T06:51:23.595Z,94016.00
2023-04-02T06:52:23.628Z,94016.00
2023-04-02T06:53:23.676Z,94016.00
2023-04-02T06:54:23.705Z,94016.00
2023-04-02T06:55:23.788Z,94020.00
2023-04-02T06:56:23.782Z,94022.00
2023-04-02T06:57:23.841Z,94022.00
2023-04-02T06:58:23.840Z,94020.00
2023-04-02T06:59:23.848Z,94022.00
2023-04-02T07:00:23.910Z,94020.00
2023-04-02T07:01:23.937Z,94020.00
2023-04-02T07:02:23.971Z,94018.00
2023-04-02T07:03:23.989Z,94020.00
2023-04-02T07:04:24.023Z,94020.00
2023-04-02T07:05:24.022Z,94016.00
2023-04-02T07:06:24.061Z,94016.00
2023-04-02T07:07:24.077Z,94016.00
2023-04-02T07:08:24.159Z,94018.00
2023-04-02T07:09:24.171Z,94018.00
2023-04-02T07:10:24.161Z,94018.00
2023-04-02T07:11:24.177Z,94018.00
2023-04-02T07:12:24.191Z,94016.00
2023-04-02T07:13:24.224Z,94015.00
2023-04-02T07:14:24.248Z,94016.00
2023-04-02T07:15:24.276Z,94015.00
2023-04-02T07:16:24.348Z,94015.00
2023-04-02T07:17:24.358Z,94016.00
2023-04-02T07:18:24.333Z,94015.00
2023-04-02T07:19:24.333Z,94013.00
2023-04-02T07:20:24.372Z,94018.00
2023-04-02T07:21:24.371Z,94018.00
2023-04-02T07:22:24.378Z,94015.00
2023-04-02T07:23:24.392Z,94013.00
2023-04-02T07:24:24.457Z,94013.00
2023-04-02T07:25:24.496Z,94011.00
2023-04-02T07:26:24.529Z,94009.00
2023-04-02T07:27:24.556Z,94009.00
2023-04-02T07:28:24.616Z,94011.00
2023-04-02T07:29:24.654Z,94007.00
2023-04-02T07:30:24.724Z,94011.00
2023-04-02T07:31:24.763Z,94011.00
2023-04-02T07:32:24.743Z,94011.00
2023-04-02T07:33:24.821Z,94013.00
2023-04-02T07:34:24.814Z,94009.00
2023-04-02T07:35:24.841Z,94009.00
2023-04-02T07:36:24.900Z,94009.00
2023-04-02T07:37:24.897Z,94009.00
2023-04-02T07:38:24.935Z,94011.00
2023-04-02T07:39:24.955Z,94011.00
2023-04-02T07:40:24.990Z,94009.00
2023-04-02T07:41:25.028Z,94011.00
2023-04-02T07:42:25.082Z,94013.00
2023-04-02T07:43:25.116Z,94013.00
2023-04-02T07:44:25.151Z,94016.00
2023-04-02T07:45:25.184Z,94018.00
2023-04-02T07:46:25.246Z,94016.00
2023-04-02T07:47:25.282Z,94018.00
2023-04-02T07:48:25.298Z,94020.00
2023-04-02T07:49:25.311Z,94020.00
2023-04-02T07:50:25.333Z,94018.00
2023-04-02T07:51:25.352Z,94020.00
2023-04-02T07:52:25.386Z,94022.00
2023-04-02T07:53:25.441Z,94024.00
2023-04-02T07:54:25.485Z,94022.00
2023-04-02T07:55:25.519Z,94020.00
2023-04-02T07:56:25.558Z,94024.00
2023-04-02T07:57:25.644Z,94022.00
2023-04-02T07:58:25.651Z,94020.00
2023-04-02T07:59:25.717Z,94016.00
2023-04-02T08:00:25.753Z,94022.00
2023-04-02T08:01:25.895Z,94020.00
2023-04-02T08:02:25.844Z,94020.00
2023-04-02T08:03:25.918Z,94020.00
2023-04-02T08:04:25.897Z,94022.00
2023-04-02T08:05:25.920Z,94018.00
2023-04-02T08:06:25.939Z,94018.00
2023-04-02T08:07:25.978Z,94018.00
2023-04-02T08:08:25.991Z,94016.00
2023-04-02T08:09:26.019Z,94020.00
2023-04-02T08:10:26.014Z,94020.00
2023-04-02T08:11:26.062Z,94018.00
2023-04-02T08:12:26.074Z,94020.00
2023-04-02T08:13:26.129Z,94020.00
2023-04-02T08:14:26.174Z,94018.00
2023-04-02T08:15:26.197Z,94022.00
2023-04-02T08:16:26.280Z,94026.00
2023-04-02T08:17:26.294Z,94022.00
2023-04-02T08:18:26.232Z,94024.00
2023-04-02T08:19:26.280Z,94026.00
2023-04-02T08:20:26.354Z,94022.00
2023-04-02T08:21:26.345Z,94022.00
2023-04-02T08:22:26.379Z,94024.00
2023-04-02T08:23:26.392Z,94024.00
2023-04-02T08:24:26.403Z,94022.00
2023-04-02T08:25:26.424Z,94020.00
2023-04-02T08:26:26.444Z,94022.00
2023-04-02T08:27:26.446Z,94020.00
2023-04-02T08:28:26.482Z,94020.00
2023-04-02T08:29:26.537Z,94020.00
2023-04-02T08:30:26.548Z,94018.00
2023-04-02T08:31:26.691Z,94015.00
2023-04-02T08:32:26.616Z,94018.00
2023-04-02T08:33:26.576Z,94018.00
2023-04-02T08:34:26.601Z,94018.00
2023-04-02T08:35:26.602Z,94018.00
2023-04-02T08:36:26.718Z,94020.00
2023-04-02T08:37:26.690Z,94016.00
2023-04-02T08:38:26.752Z,94015.00
2023-04-02T08:39:26.808Z,94015.00
2023-04-02T08:40:26.850Z,94015.00
2023-04-02T08:41:26.868Z,94015.00
2023-04-02T08:42:26.931Z,94015.00
2023-04-02T08:43:26.921Z,94015.00
2023-04-02T08:44:26.944Z,94011.00
2023-04-02T08:45:26.950Z,94007.00
2023-04-02T08:46:27.030Z,94011.00
2023-04-02T08:47:27.059Z,94009.00
2023-04-02T08:48:27.042Z,94005.00
2023-04-02T08:49:27.114Z,94005.00
2023-04-02T08:50:27.156Z,94007.00
2023-04-02T08:51:27.206Z,94007.00
2023-04-02T08:52:27.240Z,94007.00
2023-04-02T08:53:27.335Z,94003.00
2023-04-02T08:54:27.895Z,94007.00
2023-04-02T08:55:27.338Z,94005.00
2023-04-02T08:56:27.398Z,94003.00
2023-04-02T08:57:27.478Z,94005.00
2023-04-02T08:58:27.482Z,94005.00
2023-04-02T08:59:27.530Z,94005.00
2023-04-02T09:00:27.558Z,94005.00
2023-04-02T09:01:27.626Z,94007.00
2023-04-02T09:02:27.674Z,94005.00
2023-04-02T09:03:27.736Z,94005.00
2023-04-02T09:04:27.779Z,94005.00
2023-04-02T09:05:27.780Z,94007.00
2023-04-02T09:06:27.856Z,94009.00
2023-04-02T09:07:27.880Z,94007.00
2023-04-02T09:08:27.906Z,94009.00
2023-04-02T09:09:27.924Z,94011.00
2023-04-02T09:10:27.920Z,94013.00
2023-04-02T09:11:27.951Z,94013.00
2023-04-02T09:12:27.946Z,94015.00
2023-04-02T09:13:27.973Z,94013.00
2023-04-02T09:14:27.979Z,94016.00
2023-04-02T09:15:28.003Z,94015.00
2023-04-02T09:16:28.161Z,94013.00
2023-04-02T09:17:28.087Z,94015.00
2023-04-02T09:18:28.125Z,94015.00
2023-04-02T09:19:28.112Z,94016.00
2023-04-02T09:20:28.127Z,94016.00
2023-04-02T09:21:28.171Z,94016.00
2023-04-02T09:22:28.182Z,94015.00
2023-04-02T09:23:28.232Z,94013.00
2023-04-02T09:24:28.241Z,94015.00
2023-04-02T09:25:28.238Z,94013.00
2023-04-02T09:26:28.247Z,94015.00
2023-04-02T09:27:28.313Z,94013.00
2023-04-02T09:28:28.287Z,94016.00
2023-04-02T09:29:28.295Z,94016.00
2023-04-02T09:30:28.297Z,94013.00
2023-04-02T09:31:28.347Z,94015.00
2023-04-02T09:32:28.361Z,94015.00
2023-04-02T09:33:28.348Z,94013.00
2023-04-02T09:34:28.402Z,94018.00
2023-04-02T09:35:28.395Z,94016.00
2023-04-02T09:36:28.521Z,94020.00
2023-04-02T09:37:28.453Z,94020.00
2023-04-02T09:38:28.469Z,94022.00
2023-04-02T09:39:28.510Z,94024.00
2023-04-02T09:40:28.490Z,94022.00
2023-04-02T09:41:28.515Z,94022.00
2023-04-02T09:42:28.537Z,94024.00
2023-04-02T09:43:28.560Z,94022.00
2023-04-02T09:44:28.583Z,94024.00
2023-04-02T09:45:28.601Z,94022.00
2023-04-02T09:46:28.682Z,94022.00
2023-04-02T09:47:28.673Z,94018.00
2023-04-02T09:48:28.683Z,94020.00
2023-04-02T09:49:28.698Z,94018.00
2023-04-02T09:50:28.737Z,94020.00
2023-04-02T09:51:28.763Z,94020.00
2023-04-02T09:52:28.822Z,94020.00
2023-04-02T09:53:28.837Z,94018.00
2023-04-02T09:54:28.856Z,94020.00
2023-04-02T09:55:28.887Z,94016.00
2023-04-02T09:56:28.918Z,94018.00
2023-04-02T09:57:29.059Z,94020.00
2023-04-02T09:58:28.982Z,94020.00
2023-04-02T09:59:29.021Z,94020.00
2023-04-02T10:00:32.585Z,94020.00
2023-04-02T10:01:29.085Z,94022.00
2023-04-02T10:02:29.090Z,94022.00
2023-04-02T10:03:29.023Z,94020.00
2023-04-02T10:04:29.412Z,94026.00
2023-04-02T10:05:39.960Z,94026.00
2023-04-02T10:06:30.013Z,94024.00
2023-04-02T10:07:28.986Z,94026.00
2023-04-02T10:08:28.980Z,94020.00
2023-04-02T10:09:28.983Z,94022.00
2023-04-02T10:10:28.982Z,94022.00
2023-04-02T10:11:36.454Z,94020.00
2023-04-02T10:12:29.963Z,94020.00
2023-04-02T10:13:28.938Z,94022.00
2023-04-02T10:14:28.939Z,94020.00
2023-04-02T10:15:28.942Z,94016.00
2023-04-02T10:16:29.000Z,94020.00
2023-04-02T10:17:29.009Z,94020.00
2023-04-02T10:18:28.930Z,94022.00
2023-04-02T10:19:28.920Z,94022.00
2023-04-02T10:20:30.505Z,94024.00
2023-04-02T10:21:28.882Z,94020.00
2023-04-02T10:22:28.893Z,94020.00
2023-04-02T10:23:28.885Z,94020.00
2023-04-02T10:24:28.870Z,94022.00
2023-04-02T10:25:28.902Z,94024.00
2023-04-02T10:26:28.846Z,94022.00
2023-04-02T10:27:28.870Z,94018.00
2023-04-02T10:28:28.867Z,94020.00
2023-04-02T10:29:28.833Z,94022.00
2023-04-02T10:30:28.847Z,94020.00
2023-04-02T10:31:28.844Z,94022.00
2023-04-02T10:32:28.865Z,94015.00
2023-04-02T10:33:28.814Z,94020.00
2023-04-02T10:34:28.797Z,94018.00
2023-04-02T10:35:28.834Z,94018.00
2023-04-02T10:36:28.799Z,94016.00
2023-04-02T10:37:28.772Z,94015.00
2023-04-02T10:38:28.776Z,94015.00
2023-04-02T10:39:28.767Z,94015.00
2023-04-02T10:40:28.746Z,94015.00
2023-04-02T10:41:28.738Z,94013.00
2023-04-02T10:42:28.751Z,94013.00
2023-04-02T10:43:28.748Z,94013.00
2023-04-02T10:44:28.739Z,94015.00
2023-04-02T10:45:28.734Z,94015.00
2023-04-02T10:46:28.747Z,94015.00
2023-04-02T10:47:28.790Z,94016.00
2023-04-02T10:48:28.707Z,94018.00
2023-04-02T10:49:28.771Z,94016.00
2023-04-02T10:50:28.698Z,94018.00
2023-04-02T10:51:28.707Z,94020.00
2023-04-02T10:52:28.692Z,94022.00
2023-04-02T10:53:28.681Z,94020.00
2023-04-02T10:54:28.668Z,94022.00
2023-04-02T10:55:28.654Z,94024.00
2023-04-02T10:56:31.413Z,94028.00
2023-04-02T10:57:29.663Z,94026.00
2023-04-02T10:58:28.637Z,94026.00
2023-04-02T10:59:28.627Z,94028.00
2023-04-02T11:00:28.631Z,94028.00
2023-04-02T11:01:28.674Z,94034.00
2023-04-02T11:02:28.643Z,94032.00
2023-04-02T11:03:28.754Z,94034.00
2023-04-02T11:04:28.606Z,94036.00
2023-04-02T11:05:28.585Z,94036.00
2023-04-02T11:06:28.703Z,94036.00
2023-04-02T11:07:29.441Z,94036.00
2023-04-02T11:08:28.565Z,94038.00
2023-04-02T11:09:28.561Z,94036.00
2023-04-02T11:10:28.560Z,94034.00
2023-04-02T11:11:28.558Z,94030.00
2023-04-02T11:12:28.536Z,94030.00
2023-04-02T11:13:28.579Z,94032.00
2023-04-02T11:14:28.592Z,94032.00
2023-04-02T11:15:28.627Z,94030.00
2023-04-02T11:16:28.726Z,94032.00
2023-04-02T11:17:28.747Z,94032.00
2023-04-02T11:18:28.730Z,94032.00
2023-04-02T11:19:28.763Z,94034.00
2023-04-02T11:20:28.826Z,94036.00
2023-04-02T11:21:28.836Z,94036.00
2023-04-02T11:22:28.881Z,94036.00
2023-04-02T11:23:28.907Z,94040.00
2023-04-02T11:24:28.950Z,94038.00
2023-04-02T11:25:28.996Z,94040.00
2023-04-02T11:26:29.037Z,94042.00
2023-04-02T11:27:29.056Z,94040.00
2023-04-02T11:28:29.105Z,94042.00
2023-04-02T11:29:29.123Z,94046.00
2023-04-02T11:30:29.182Z,94044.00
2023-04-02T11:31:29.195Z,94046.00
2023-04-02T11:32:29.309Z,94048.00
2023-04-02T11:33:36.349Z,94050.00
2023-04-02T11:34:30.282Z,94050.00
2023-04-02T11:35:29.278Z,94052.00
2023-04-02T11:36:29.259Z,94058.00
2023-04-02T11:37:29.251Z,94058.00
2023-04-02T11:38:29.273Z,94062.00
2023-04-02T11:39:29.262Z,94067.00
2023-04-02T11:40:29.262Z,94062.00
2023-04-02T11:41:29.403Z,94063.00
2023-04-02T11:42:29.214Z,94065.00
2023-04-02T11:43:29.210Z,94065.00
2023-04-02T11:44:29.216Z,94067.00
2023-04-02T11:45:29.211Z,94073.00